Time;durP1;ratioP1;P1;durP2;ratioP2;P2;SDS_P1;SDS_P2;PMS_P1;PMS_P2;Temp;Humidity;BMP_temperature;BMP_pressure;BME280_temperature;BME280_humidity;BME280_pressure;Samples;Min_cycle;Max_cycle;Signal;HPM_P1;HPM_P2
2021/12/12 00:07:10;;;;;;;7.35;4.90;;;12.10;50.90;;;;;;20887707;28;20037;-80
2021/12/12 00:17:11;;;;;;;6.82;3.90;;;12.10;50.90;;;;;;20912417;28;20460;-80
2021/12/12 00:27:12;;;;;;;10.48;5.00;;;12.10;51.00;;;;;;20920732;28;20093;-80
2021/12/12 00:37:13;;;;;;;7.63;4.57;;;12.10;51.10;;;;;;20903268;28;20486;-80
2021/12/12 00:47:13;;;;;;;6.38;3.78;;;12.10;51.20;;;;;;20919434;28;20033;-80
2021/12/12 00:57:16;;;;;;;11.70;4.72;;;12.00;51.20;;;;;;20919885;28;20036;-79
2021/12/12 01:07:21;;;;;;;6.28;3.67;;;12.00;51.30;;;;;;20881996;28;20632;-80
2021/12/12 01:17:26;;;;;;;6.93;3.92;;;12.00;51.40;;;;;;20916617;28;20028;-80
2021/12/12 01:27:26;;;;;;;9.55;3.45;;;12.00;51.50;;;;;;20899352;28;20163;-80
2021/12/12 01:47:40;;;;;;;8.40;4.43;;;12.00;51.70;;;;;;20914513;28;20102;-80
2021/12/12 01:57:40;;;;;;;7.93;4.03;;;11.90;51.70;;;;;;20913714;28;20456;-80
2021/12/12 02:07:43;;;;;;;8.25;3.53;;;11.90;51.70;;;;;;20913307;28;20096;-80
2021/12/12 02:17:46;;;;;;;6.82;3.42;;;11.90;51.80;;;;;;20897297;28;20040;-80
2021/12/12 02:38:06;;;;;;;8.60;3.78;;;11.90;52.00;;;;;;20910440;28;20095;-80
2021/12/12 02:48:09;;;;;;;5.70;3.03;;;11.90;52.00;;;;;;20893976;28;20048;-80
2021/12/12 02:58:12;;;;;;;6.70;3.90;;;11.90;52.90;;;;;;20892623;28;20530;-80
2021/12/12 03:08:13;;;;;;;5.20;3.30;;;11.80;52.10;;;;;;20908297;28;20399;-80
2021/12/12 03:18:17;;;;;;;6.30;3.20;;;11.80;52.20;;;;;;20874731;28;20598;-80
2021/12/12 03:28:20;;;;;;;4.95;2.83;;;11.80;52.30;;;;;;20878245;28;20127;-80
2021/12/12 03:38:21;;;;;;;8.25;2.92;;;11.80;52.30;;;;;;20873104;28;20697;-80
2021/12/12 03:48:27;;;;;;;6.65;3.65;;;11.70;52.40;;;;;;20872222;28;20557;-80
2021/12/12 03:58:27;;;;;;;7.85;3.45;;;11.70;52.40;;;;;;20904891;28;20128;-80
2021/12/12 04:08:29;;;;;;;7.50;3.38;;;11.70;52.40;;;;;;20904599;28;20055;-79
2021/12/12 04:18:30;;;;;;;6.07;3.38;;;11.70;52.50;;;;;;20904275;28;20075;-79
2021/12/12 04:28:30;;;;;;;5.50;2.95;;;11.70;52.60;;;;;;20903665;28;20041;-80
2021/12/12 04:38:31;;;;;;;6.43;3.00;;;11.70;52.70;;;;;;20903517;28;20144;-80
2021/12/12 04:59:07;;;;;;;4.00;2.95;;;11.60;52.80;;;;;;20903443;28;20033;-80
2021/12/12 05:09:38;;;;;;;6.20;3.15;;;11.60;52.80;;;;;;20917704;28;20190;-80
2021/12/12 05:19:44;;;;;;;4.72;2.30;;;12.00;52.30;;;;;;20914493;28;20120;-79
2021/12/12 05:29:48;;;;;;;6.00;3.25;;;13.20;50.00;;;;;;20916078;28;20076;-80
2021/12/12 05:39:49;;;;;;;6.65;3.30;;;14.30;47.60;;;;;;20888220;28;20115;-77
2021/12/12 05:49:50;;;;;;;4.82;2.60;;;15.40;45.30;;;;;;20897541;28;20032;-80
2021/12/12 05:59:51;;;;;;;5.45;2.83;;;16.10;43.60;;;;;;20897653;28;20032;-78
2021/12/12 06:09:52;;;;;;;4.22;2.22;;;16.50;42.50;;;;;;20896618;28;20044;-78
2021/12/12 06:19:52;;;;;;;4.10;2.20;;;16.70;42.00;;;;;;20895207;28;20159;-78
2021/12/12 06:29:55;;;;;;;5.03;2.65;;;16.80;41.60;;;;;;20895662;28;20049;-80
2021/12/12 06:39:56;;;;;;;4.75;2.88;;;16.20;42.30;;;;;;20894242;28;20041;-80
2021/12/12 06:49:58;;;;;;;4.47;2.97;;;15.20;43.80;;;;;;20893027;28;20410;-80
2021/12/12 06:59:58;;;;;;;4.65;2.63;;;14.40;45.30;;;;;;20909086;28;20287;-78
2021/12/12 07:09:59;;;;;;;4.43;2.60;;;13.80;46.60;;;;;;20892622;28;20212;-78
2021/12/12 07:19:59;;;;;;;3.47;2.40;;;13.30;47.70;;;;;;20891743;28;20044;-78
2021/12/12 07:30:01;;;;;;;2.67;1.75;;;13.00;48.50;;;;;;20887199;28;20402;-78
2021/12/12 07:40:02;;;;;;;4.07;2.20;;;12.80;49.10;;;;;;20890520;28;20082;-77
2021/12/12 07:50:05;;;;;;;2.78;1.55;;;12.70;49.50;;;;;;20871442;28;20041;-79
2021/12/12 08:00:09;;;;;;;2.60;1.73;;;12.60;49.70;;;;;;20891362;28;20482;-80
2021/12/12 08:10:13;;;;;;;;;;;12.60;50.00;;;;;;20841614;28;20663;-76
2021/12/12 08:20:14;;;;;;;3.95;1.95;;;12.60;50.20;;;;;;20838112;28;19912;-79
2021/12/12 08:30:17;;;;;;;3.45;1.48;;;12.50;50.30;;;;;;20887805;28;20033;-76
2021/12/12 08:40:20;;;;;;;3.78;1.95;;;12.50;50.50;;;;;;20914979;28;20035;-82
2021/12/12 08:50:24;;;;;;;3.63;2.00;;;12.40;50.70;;;;;;20919800;28;20403;-73
2021/12/12 09:00:26;;;;;;;2.70;1.65;;;12.40;50.90;;;;;;20863142;28;20068;-72
2021/12/12 09:10:41;;;;;;;4.00;2.05;;;12.40;51.20;;;;;;20818395;28;20078;-74
2021/12/12 09:20:56;;;;;;;4.22;2.03;;;12.20;51.30;;;;;;20866632;28;20094;-73
2021/12/12 09:31:04;;;;;;;4.13;1.80;;;12.20;51.60;;;;;;20907663;28;20087;-73
2021/12/12 09:41:10;;;;;;;2.67;1.65;;;12.10;51.70;;;;;;20918686;28;20398;-70
2021/12/12 09:51:29;;;;;;;2.75;1.42;;;12.10;51.90;;;;;;20901927;28;20033;-72
2021/12/12 10:01:37;;;;;;;5.50;1.40;;;12.10;52.00;;;;;;20902307;28;20091;-74
2021/12/12 10:12:06;;;;;;;3.22;1.40;;;12.10;52.20;;;;;;20917524;28;20025;-73
2021/12/12 10:22:27;;;;;;;2.30;1.42;;;12.10;52.30;;;;;;20915818;28;20041;-74
2021/12/12 10:32:34;;;;;;;2.40;1.15;;;12.10;52.40;;;;;;20917961;28;20057;-72
2021/12/12 10:42:45;;;;;;;1.73;1.10;;;12.00;52.50;;;;;;20915706;28;20033;-81
2021/12/12 10:52:51;;;;;;;2.40;1.00;;;12.00;52.60;;;;;;20879589;28;20396;-73
2021/12/12 11:03:07;;;;;;;1.77;0.95;;;12.00;52.80;;;;;;20889045;28;20123;-73
2021/12/12 11:13:09;;;;;;;2.42;1.30;;;12.00;52.90;;;;;;20828978;28;20476;-74
2021/12/12 11:23:35;;;;;;;2.63;1.58;;;12.70;51.50;;;;;;21208797;22;20124;-80
2021/12/12 11:33:36;;;;;;;2.40;1.08;;;13.70;49.60;;;;;;20804220;28;20056;-76
2021/12/12 11:43:42;;;;;;;3.00;1.40;;;14.50;48.00;;;;;;20827672;28;20475;-77
2021/12/12 11:53:45;;;;;;;1.50;0.73;;;15.10;46.50;;;;;;20812745;28;20673;-77
2021/12/12 12:04:09;;;;;;;2.55;0.90;;;15.90;45.10;;;;;;20795793;28;20108;-74
2021/12/12 12:14:18;;;;;;;3.17;0.90;;;16.40;43.80;;;;;;20754113;28;20029;-77
2021/12/12 12:24:38;;;;;;;2.25;0.85;;;16.60;43.40;;;;;;20770314;28;20068;-74
2021/12/12 12:35:07;;;;;;;2.72;1.13;;;16.60;43.20;;;;;;20759801;28;20538;-74
2021/12/12 12:45:45;;;;;;;1.42;0.88;;;16.50;43.30;;;;;;20807749;28;20049;-76
2021/12/12 12:56:05;;;;;;;1.67;0.82;;;16.30;43.50;;;;;;20803123;28;20086;-77
2021/12/12 13:06:14;;;;;;;2.20;0.98;;;15.50;44.70;;;;;;20799042;28;20388;-75
2021/12/12 13:16:16;;;;;;;2.45;1.35;;;14.70;46.30;;;;;;20819066;28;20069;-75
2021/12/12 13:26:50;;;;;;;1.40;1.02;;;14.10;47.70;;;;;;20831275;28;20050;-75
2021/12/12 13:37:02;;;;;;;1.10;0.90;;;13.60;49.10;;;;;;20819585;28;20033;-75
2021/12/12 13:47:09;;;;;;;4.95;0.95;;;13.20;50.00;;;;;;20817489;28;20041;-74
2021/12/12 13:57:16;;;;;;;3.17;1.38;;;13.10;50.60;;;;;;20800468;28;20484;-76
2021/12/12 14:07:17;;;;;;;2.13;0.90;;;13.00;51.00;;;;;;20814753;28;20045;-74
2021/12/12 14:17:24;;;;;;;2.72;1.95;;;12.90;51.20;;;;;;20813924;28;20041;-74
2021/12/12 14:27:24;;;;;;;1.97;1.10;;;12.90;51.50;;;;;;20813185;28;20469;-75
2021/12/12 14:37:28;;;;;;;1.17;0.88;;;12.90;51.80;;;;;;20813270;28;20036;-75
2021/12/12 14:47:33;;;;;;;1.48;0.80;;;12.90;52.00;;;;;;20812280;28;20041;-75
2021/12/12 14:57:34;;;;;;;1.83;1.05;;;12.90;52.20;;;;;;20766345;28;20065;-77
2021/12/12 15:07:37;;;;;;;3.40;0.80;;;12.90;52.40;;;;;;20749675;28;20084;-77
2021/12/12 15:17:39;;;;;;;1.30;0.60;;;12.80;52.50;;;;;;20816618;28;20072;-78
2021/12/12 15:27:42;;;;;;;1.77;1.38;;;12.80;52.70;;;;;;20742167;28;20041;-77
2021/12/12 15:37:44;;;;;;;2.42;0.90;;;12.80;52.90;;;;;;20789444;28;20506;-78
2021/12/12 15:47:48;;;;;;;2.58;0.88;;;13.00;52.80;;;;;;20793286;28;20487;-78
2021/12/12 15:57:51;;;;;;;1.85;0.98;;;13.90;51.10;;;;;;20794733;28;20075;-78
2021/12/12 16:07:56;;;;;;;1.00;0.65;;;14.70;49.40;;;;;;20797131;28;20038;-80
2021/12/12 16:17:57;;;;;;;1.73;1.10;;;15.50;47.90;;;;;;20777702;28;20099;-78
2021/12/12 16:27:58;;;;;;;1.10;0.50;;;16.00;46.70;;;;;;20762394;28;20037;-78
2021/12/12 16:38:01;;;;;;;1.48;1.00;;;16.30;45.80;;;;;;20746751;28;20492;-79
2021/12/12 16:48:08;;;;;;;1.48;0.77;;;16.20;45.60;;;;;;20790640;28;20041;-80
2021/12/12 16:58:14;;;;;;;0.95;0.70;;;15.40;46.80;;;;;;20814870;28;20037;-79
2021/12/12 17:08:47;;;;;;;1.17;0.80;;;14.70;48.70;;;;;;20846956;28;20049;-78
2021/12/12 17:18:40;;;;;;;2.40;1.00;;;14.00;50.00;;;;;;20840871;28;20484;-78
2021/12/12 17:28:41;;;;;;;1.60;0.90;;;13.50;51.20;;;;;;20840824;28;20140;-80
2021/12/12 17:38:51;;;;;;;1.95;1.00;;;13.10;52.20;;;;;;20806491;28;20118;-80
2021/12/12 17:49:18;;;;;;;2.05;0.70;;;13.00;53.10;;;;;;20823547;28;20476;-79
2021/12/12 17:59:33;;;;;;;2.37;1.30;;;12.90;53.60;;;;;;20854405;28;20065;-80
2021/12/12 18:09:39;;;;;;;0.90;0.60;;;12.80;54.00;;;;;;20820404;28;20043;-82
2021/12/12 18:20:17;;;;;;;0.80;0.53;;;12.90;54.90;;;;;;20838548;28;20488;-80
2021/12/12 18:30:30;;;;;;;0.98;0.50;;;12.80;54.40;;;;;;20775748;28;20041;-81
2021/12/12 18:40:46;;;;;;;1.45;0.88;;;12.80;54.50;;;;;;20757714;28;20030;-81
2021/12/12 18:50:49;;;;;;;2.27;0.80;;;12.70;54.70;;;;;;20765215;28;20484;-80
2021/12/12 19:01:13;;;;;;;1.35;0.70;;;12.70;54.90;;;;;;20817978;28;20041;-80
2021/12/12 19:11:25;;;;;;;2.25;0.50;;;12.60;55.00;;;;;;20812399;28;20048;-80
2021/12/12 19:21:35;;;;;;;1.73;0.80;;;12.60;55.10;;;;;;20798223;28;20112;-81
2021/12/12 19:31:36;;;;;;;1.00;0.65;;;12.60;55.20;;;;;;20753119;28;20136;-81
2021/12/12 19:41:40;;;;;;;1.20;0.63;;;12.60;55.30;;;;;;20729429;28;20061;-79
2021/12/12 19:51:47;;;;;;;0.45;0.40;;;12.60;55.30;;;;;;20728243;28;20038;-79
2021/12/12 20:01:51;;;;;;;1.48;0.80;;;12.60;55.40;;;;;;20732772;28;20040;-79
2021/12/12 20:12:01;;;;;;;2.22;0.90;;;12.60;55.50;;;;;;20748858;28;20099;-79
2021/12/12 20:22:09;;;;;;;0.93;0.70;;;12.60;55.70;;;;;;20729714;28;20092;-80
2021/12/12 20:32:33;;;;;;;1.25;0.80;;;12.60;55.80;;;;;;20806909;28;20045;-81
2021/12/12 20:42:42;;;;;;;1.35;0.95;;;12.60;55.90;;;;;;20830365;28;20033;-81
2021/12/12 20:53:06;;;;;;;1.33;0.80;;;12.50;55.90;;;;;;20831815;28;20042;-81
2021/12/12 21:03:07;;;;;;;0.60;0.60;;;12.50;56.00;;;;;;20819463;28;20045;-80
2021/12/12 21:13:10;;;;;;;1.27;0.85;;;12.50;56.20;;;;;;20745872;28;20388;-78
2021/12/12 21:23:30;;;;;;;1.48;0.65;;;12.50;56.20;;;;;;20756431;28;20047;-80
2021/12/12 21:33:47;;;;;;;1.23;0.90;;;12.50;56.30;;;;;;20816497;28;20479;-82
2021/12/12 21:43:49;;;;;;;1.98;0.90;;;12.40;56.30;;;;;;20841377;28;20039;-81
2021/12/12 21:53:51;;;;;;;0.93;0.60;;;12.50;56.40;;;;;;20825102;28;20083;-81
2021/12/12 22:03:55;;;;;;;1.02;0.70;;;12.40;56.40;;;;;;20839222;28;20033;-79
2021/12/12 22:13:56;;;;;;;0.90;0.65;;;12.50;56.50;;;;;;20806135;28;20033;-82
2021/12/12 22:24:11;;;;;;;1.10;0.60;;;12.40;56.60;;;;;;20839208;28;20044;-81
2021/12/12 22:34:13;;;;;;;1.08;0.65;;;12.40;56.60;;;;;;20821895;28;20030;-81
2021/12/12 22:44:22;;;;;;;0.75;0.60;;;12.40;56.60;;;;;;20835873;28;20112;-83
2021/12/12 22:54:28;;;;;;;1.30;0.70;;;12.40;56.60;;;;;;20834597;28;20036;-81
2021/12/12 23:04:37;;;;;;;0.68;0.60;;;12.40;56.70;;;;;;20835249;28;20139;-79
2021/12/12 23:14:54;;;;;;;1.35;0.80;;;12.40;56.80;;;;;;20802680;28;20045;-78
2021/12/12 23:24:57;;;;;;;1.85;0.85;;;12.30;56.90;;;;;;20818000;28;20044;-78
2021/12/12 23:35:05;;;;;;;1.45;0.75;;;12.30;57.60;;;;;;20817040;28;20088;-81
2021/12/12 23:45:17;;;;;;;1.05;0.57;;;12.30;57.20;;;;;;20815678;28;20053;-80
2021/12/12 23:55:32;;;;;;;0.77;0.55;;;12.30;57.20;;;;;;20814151;28;20571;-80
